sensor_id;sensor_type;location;lat;lon;timestamp;P1;durP1;ratioP1;P2;durP2;ratioP2
22320;SDS011;11328;53.928;18.522;2022-07-01T00:01:45;25.15;;;15.10;;
22320;SDS011;11328;53.928;18.522;2022-07-01T00:04:14;27.88;;;16.27;;
22320;SDS011;11328;53.928;18.522;2022-07-01T00:06:41;44.60;;;17.45;;
22320;SDS011;11328;53.928;18.522;2022-07-01T00:09:08;45.92;;;15.77;;
22320;SDS011;11328;53.928;18.522;2022-07-01T00:11:35;31.55;;;15.30;;
22320;SDS011;11328;53.928;18.522;2022-07-01T00:14:02;26.67;;;14.40;;
22320;SDS011;11328;53.928;18.522;2022-07-01T00:16:29;40.15;;;16.17;;
22320;SDS011;11328;53.928;18.522;2022-07-01T00:18:57;35.58;;;17.08;;
22320;SDS011;11328;53.928;18.522;2022-07-01T00:21:25;38.30;;;16.10;;
22320;SDS011;11328;53.928;18.522;2022-07-01T00:23:52;41.30;;;17.13;;
22320;SDS011;11328;53.928;18.522;2022-07-01T00:26:18;33.03;;;15.68;;
22320;SDS011;11328;53.928;18.522;2022-07-01T00:28:45;32.40;;;16.10;;
22320;SDS011;11328;53.928;18.522;2022-07-01T00:31:12;33.85;;;18.52;;
22320;SDS011;11328;53.928;18.522;2022-07-01T00:33:40;33.00;;;17.60;;
22320;SDS011;11328;53.928;18.522;2022-07-01T00:36:07;31.05;;;18.35;;
22320;SDS011;11328;53.928;18.522;2022-07-01T00:38:34;30.27;;;18.38;;
22320;SDS011;11328;53.928;18.522;2022-07-01T00:41:01;37.45;;;18.75;;
22320;SDS011;11328;53.928;18.522;2022-07-01T00:43:33;33.38;;;18.45;;
22320;SDS011;11328;53.928;18.522;2022-07-01T00:46:23;26.85;;;18.02;;
22320;SDS011;11328;53.928;18.522;2022-07-01T00:48:55;38.30;;;19.17;;
22320;SDS011;11328;53.928;18.522;2022-07-01T00:51:24;33.47;;;18.55;;
22320;SDS011;11328;53.928;18.522;2022-07-01T00:53:51;41.20;;;18.30;;
22320;SDS011;11328;53.928;18.522;2022-07-01T00:56:19;31.55;;;18.42;;
22320;SDS011;11328;53.928;18.522;2022-07-01T00:58:46;27.73;;;18.50;;
22320;SDS011;11328;53.928;18.522;2022-07-01T01:01:13;27.10;;;17.98;;
22320;SDS011;11328;53.928;18.522;2022-07-01T01:03:40;29.77;;;18.27;;
22320;SDS011;11328;53.928;18.522;2022-07-01T01:06:09;30.00;;;18.77;;
22320;SDS011;11328;53.928;18.522;2022-07-01T01:08:36;30.10;;;18.35;;
22320;SDS011;11328;53.928;18.522;2022-07-01T01:11:04;30.67;;;19.42;;
22320;SDS011;11328;53.928;18.522;2022-07-01T01:13:32;31.75;;;18.85;;
22320;SDS011;11328;53.928;18.522;2022-07-01T01:15:59;26.77;;;18.13;;
22320;SDS011;11328;53.928;18.522;2022-07-01T01:18:27;32.45;;;18.33;;
22320;SDS011;11328;53.928;18.522;2022-07-01T01:20:54;26.95;;;17.17;;
22320;SDS011;11328;53.928;18.522;2022-07-01T01:23:21;32.95;;;18.55;;
22320;SDS011;11328;53.928;18.522;2022-07-01T01:25:48;27.48;;;16.98;;
22320;SDS011;11328;53.928;18.522;2022-07-01T01:28:15;25.55;;;17.77;;
22320;SDS011;11328;53.928;18.522;2022-07-01T01:30:42;23.92;;;17.65;;
22320;SDS011;11328;53.928;18.522;2022-07-01T01:33:10;22.30;;;16.05;;
22320;SDS011;11328;53.928;18.522;2022-07-01T01:35:38;23.92;;;15.55;;
22320;SDS011;11328;53.928;18.522;2022-07-01T01:38:05;24.10;;;16.95;;
22320;SDS011;11328;53.928;18.522;2022-07-01T01:40:32;29.95;;;18.70;;
22320;SDS011;11328;53.928;18.522;2022-07-01T01:42:59;28.67;;;18.10;;
22320;SDS011;11328;53.928;18.522;2022-07-01T01:45:29;25.70;;;17.75;;
22320;SDS011;11328;53.928;18.522;2022-07-01T01:47:56;28.05;;;16.50;;
22320;SDS011;11328;53.928;18.522;2022-07-01T01:50:23;29.25;;;16.92;;
22320;SDS011;11328;53.928;18.522;2022-07-01T01:52:50;29.95;;;16.50;;
22320;SDS011;11328;53.928;18.522;2022-07-01T01:55:17;26.25;;;16.45;;
22320;SDS011;11328;53.928;18.522;2022-07-01T01:57:44;23.90;;;17.08;;
22320;SDS011;11328;53.928;18.522;2022-07-01T02:00:11;21.13;;;14.38;;
22320;SDS011;11328;53.928;18.522;2022-07-01T02:02:38;26.33;;;15.38;;
22320;SDS011;11328;53.928;18.522;2022-07-01T02:05:08;22.15;;;14.27;;
22320;SDS011;11328;53.928;18.522;2022-07-01T02:07:38;28.17;;;14.93;;
22320;SDS011;11328;53.928;18.522;2022-07-01T02:10:06;21.17;;;13.68;;
22320;SDS011;11328;53.928;18.522;2022-07-01T02:12:34;23.90;;;14.23;;
22320;SDS011;11328;53.928;18.522;2022-07-01T02:15:01;22.80;;;14.18;;
22320;SDS011;11328;53.928;18.522;2022-07-01T02:17:28;25.58;;;14.57;;
22320;SDS011;11328;53.928;18.522;2022-07-01T02:19:55;20.98;;;14.65;;
22320;SDS011;11328;53.928;18.522;2022-07-01T02:22:22;20.60;;;14.30;;
22320;SDS011;11328;53.928;18.522;2022-07-01T02:24:49;22.67;;;13.57;;
22320;SDS011;11328;53.928;18.522;2022-07-01T02:27:16;24.67;;;13.60;;
22320;SDS011;11328;53.928;18.522;2022-07-01T02:29:42;22.38;;;13.45;;
22320;SDS011;11328;53.928;18.522;2022-07-01T02:32:09;23.42;;;12.90;;
22320;SDS011;11328;53.928;18.522;2022-07-01T02:34:39;19.95;;;12.68;;
22320;SDS011;11328;53.928;18.522;2022-07-01T02:37:07;23.67;;;13.57;;
22320;SDS011;11328;53.928;18.522;2022-07-01T02:39:34;19.80;;;11.93;;
22320;SDS011;11328;53.928;18.522;2022-07-01T02:42:01;22.85;;;15.05;;
22320;SDS011;11328;53.928;18.522;2022-07-01T02:44:47;24.60;;;14.98;;
22320;SDS011;11328;53.928;18.522;2022-07-01T02:47:14;21.88;;;15.25;;
22320;SDS011;11328;53.928;18.522;2022-07-01T02:49:41;25.65;;;16.00;;
22320;SDS011;11328;53.928;18.522;2022-07-01T02:52:09;23.50;;;14.85;;
22320;SDS011;11328;53.928;18.522;2022-07-01T02:54:36;22.77;;;16.30;;
22320;SDS011;11328;53.928;18.522;2022-07-01T02:57:03;28.60;;;18.70;;
22320;SDS011;11328;53.928;18.522;2022-07-01T02:59:32;24.45;;;17.38;;
22320;SDS011;11328;53.928;18.522;2022-07-01T03:01:58;24.67;;;16.38;;
22320;SDS011;11328;53.928;18.522;2022-07-01T03:04:25;22.27;;;15.65;;
22320;SDS011;11328;53.928;18.522;2022-07-01T03:06:53;22.20;;;15.35;;
22320;SDS011;11328;53.928;18.522;2022-07-01T03:09:21;25.45;;;16.45;;
22320;SDS011;11328;53.928;18.522;2022-07-01T03:11:48;26.33;;;17.65;;
22320;SDS011;11328;53.928;18.522;2022-07-01T03:14:15;27.25;;;16.83;;
22320;SDS011;11328;53.928;18.522;2022-07-01T03:16:42;21.35;;;15.43;;
22320;SDS011;11328;53.928;18.522;2022-07-01T03:19:09;20.73;;;15.48;;
22320;SDS011;11328;53.928;18.522;2022-07-01T03:21:36;20.25;;;15.52;;
22320;SDS011;11328;53.928;18.522;2022-07-01T03:24:03;25.52;;;18.55;;
22320;SDS011;11328;53.928;18.522;2022-07-01T03:26:30;22.90;;;15.50;;
22320;SDS011;11328;53.928;18.522;2022-07-01T03:29:03;21.60;;;16.10;;
22320;SDS011;11328;53.928;18.522;2022-07-01T03:31:30;25.55;;;16.27;;
22320;SDS011;11328;53.928;18.522;2022-07-01T03:34:00;23.42;;;14.95;;
22320;SDS011;11328;53.928;18.522;2022-07-01T03:36:27;23.00;;;15.27;;
22320;SDS011;11328;53.928;18.522;2022-07-01T03:38:54;22.67;;;15.00;;
22320;SDS011;11328;53.928;18.522;2022-07-01T03:41:21;21.00;;;15.38;;
22320;SDS011;11328;53.928;18.522;2022-07-01T03:43:48;20.95;;;14.82;;
22320;SDS011;11328;53.928;18.522;2022-07-01T03:46:15;23.02;;;15.27;;
22320;SDS011;11328;53.928;18.522;2022-07-01T03:48:42;21.67;;;15.82;;
22320;SDS011;11328;53.928;18.522;2022-07-01T03:51:09;23.52;;;16.20;;
22320;SDS011;11328;53.928;18.522;2022-07-01T03:53:36;24.50;;;18.40;;
22320;SDS011;11328;53.928;18.522;2022-07-01T03:56:21;25.02;;;16.70;;
22320;SDS011;11328;53.928;18.522;2022-07-01T03:58:48;20.55;;;15.18;;
22320;SDS011;11328;53.928;18.522;2022-07-01T04:01:15;23.95;;;16.42;;
22320;SDS011;11328;53.928;18.522;2022-07-01T04:03:42;20.92;;;15.45;;
22320;SDS011;11328;53.928;18.522;2022-07-01T04:06:09;26.50;;;16.92;;
22320;SDS011;11328;53.928;18.522;2022-07-01T04:08:36;28.13;;;16.30;;
22320;SDS011;11328;53.928;18.522;2022-07-01T04:11:03;24.35;;;14.93;;
22320;SDS011;11328;53.928;18.522;2022-07-01T04:13:34;23.00;;;15.15;;
22320;SDS011;11328;53.928;18.522;2022-07-01T04:16:05;20.50;;;14.73;;
22320;SDS011;11328;53.928;18.522;2022-07-01T04:18:33;23.70;;;15.38;;
22320;SDS011;11328;53.928;18.522;2022-07-01T04:21:00;22.23;;;15.10;;
22320;SDS011;11328;53.928;18.522;2022-07-01T04:23:46;26.40;;;16.00;;
22320;SDS011;11328;53.928;18.522;2022-07-01T04:26:12;18.50;;;13.38;;
22320;SDS011;11328;53.928;18.522;2022-07-01T04:28:59;24.50;;;14.77;;
22320;SDS011;11328;53.928;18.522;2022-07-01T04:31:26;22.45;;;14.82;;
22320;SDS011;11328;53.928;18.522;2022-07-01T04:33:54;27.27;;;15.18;;
22320;SDS011;11328;53.928;18.522;2022-07-01T04:36:21;20.58;;;14.40;;
22320;SDS011;11328;53.928;18.522;2022-07-01T04:38:48;21.13;;;14.00;;
22320;SDS011;11328;53.928;18.522;2022-07-01T04:41:15;22.92;;;14.82;;
22320;SDS011;11328;53.928;18.522;2022-07-01T04:44:01;22.10;;;14.40;;
22320;SDS011;11328;53.928;18.522;2022-07-01T04:46:29;23.27;;;14.80;;
22320;SDS011;11328;53.928;18.522;2022-07-01T04:48:56;22.40;;;13.40;;
22320;SDS011;11328;53.928;18.522;2022-07-01T04:51:23;22.73;;;14.05;;
22320;SDS011;11328;53.928;18.522;2022-07-01T04:53:50;18.42;;;13.60;;
22320;SDS011;11328;53.928;18.522;2022-07-01T04:56:17;22.95;;;13.82;;
22320;SDS011;11328;53.928;18.522;2022-07-01T04:58:45;21.23;;;12.98;;
22320;SDS011;11328;53.928;18.522;2022-07-01T05:01:12;22.15;;;13.38;;
22320;SDS011;11328;53.928;18.522;2022-07-01T05:03:39;22.90;;;12.95;;
22320;SDS011;11328;53.928;18.522;2022-07-01T05:06:06;17.65;;;11.25;;
22320;SDS011;11328;53.928;18.522;2022-07-01T05:08:33;16.88;;;11.32;;
22320;SDS011;11328;53.928;18.522;2022-07-01T05:11:00;19.35;;;11.30;;
22320;SDS011;11328;53.928;18.522;2022-07-01T05:13:27;21.90;;;12.65;;
22320;SDS011;11328;53.928;18.522;2022-07-01T05:15:54;20.88;;;11.50;;
22320;SDS011;11328;53.928;18.522;2022-07-01T05:18:21;23.38;;;12.23;;
22320;SDS011;11328;53.928;18.522;2022-07-01T05:21:07;19.58;;;11.82;;
22320;SDS011;11328;53.928;18.522;2022-07-01T05:23:52;20.88;;;11.60;;
22320;SDS011;11328;53.928;18.522;2022-07-01T05:26:19;22.00;;;12.25;;
22320;SDS011;11328;53.928;18.522;2022-07-01T05:28:47;23.83;;;12.23;;
22320;SDS011;11328;53.928;18.522;2022-07-01T05:31:14;21.10;;;12.02;;
22320;SDS011;11328;53.928;18.522;2022-07-01T05:33:41;20.25;;;12.07;;
22320;SDS011;11328;53.928;18.522;2022-07-01T05:36:09;16.55;;;11.02;;
22320;SDS011;11328;53.928;18.522;2022-07-01T05:38:36;19.65;;;11.55;;
22320;SDS011;11328;53.928;18.522;2022-07-01T05:41:04;18.50;;;11.98;;
22320;SDS011;11328;53.928;18.522;2022-07-01T05:43:32;17.08;;;11.10;;
22320;SDS011;11328;53.928;18.522;2022-07-01T05:46:00;17.13;;;10.48;;
22320;SDS011;11328;53.928;18.522;2022-07-01T05:48:27;19.92;;;10.88;;
22320;SDS011;11328;53.928;18.522;2022-07-01T05:50:54;18.55;;;10.77;;
22320;SDS011;11328;53.928;18.522;2022-07-01T05:53:22;17.92;;;10.90;;
22320;SDS011;11328;53.928;18.522;2022-07-01T05:55:49;21.15;;;11.55;;
22320;SDS011;11328;53.928;18.522;2022-07-01T05:58:16;18.33;;;10.70;;
22320;SDS011;11328;53.928;18.522;2022-07-01T06:00:43;18.38;;;10.77;;
22320;SDS011;11328;53.928;18.522;2022-07-01T06:03:11;19.40;;;10.50;;
22320;SDS011;11328;53.928;18.522;2022-07-01T06:05:40;16.25;;;8.63;;
22320;SDS011;11328;53.928;18.522;2022-07-01T06:08:08;18.85;;;9.05;;
22320;SDS011;11328;53.928;18.522;2022-07-01T06:10:35;14.23;;;8.80;;
22320;SDS011;11328;53.928;18.522;2022-07-01T06:13:04;15.23;;;8.00;;
22320;SDS011;11328;53.928;18.522;2022-07-01T06:15:31;17.98;;;7.85;;
22320;SDS011;11328;53.928;18.522;2022-07-01T06:17:59;15.95;;;8.07;;
22320;SDS011;11328;53.928;18.522;2022-07-01T06:20:26;15.90;;;8.30;;
22320;SDS011;11328;53.928;18.522;2022-07-01T06:22:53;15.13;;;7.70;;
22320;SDS011;11328;53.928;18.522;2022-07-01T06:25:20;14.93;;;6.85;;
22320;SDS011;11328;53.928;18.522;2022-07-01T06:27:47;14.07;;;6.75;;
22320;SDS011;11328;53.928;18.522;2022-07-01T06:30:14;13.05;;;6.78;;
22320;SDS011;11328;53.928;18.522;2022-07-01T06:32:41;13.52;;;6.47;;
22320;SDS011;11328;53.928;18.522;2022-07-01T06:35:08;13.48;;;7.10;;
22320;SDS011;11328;53.928;18.522;2022-07-01T06:37:36;13.15;;;6.20;;
22320;SDS011;11328;53.928;18.522;2022-07-01T06:40:09;14.23;;;5.72;;
22320;SDS011;11328;53.928;18.522;2022-07-01T06:42:37;11.30;;;5.43;;
22320;SDS011;11328;53.928;18.522;2022-07-01T06:45:04;10.15;;;6.00;;
22320;SDS011;11328;53.928;18.522;2022-07-01T06:47:31;14.10;;;6.60;;
22320;SDS011;11328;53.928;18.522;2022-07-01T06:49:58;17.05;;;6.90;;
22320;SDS011;11328;53.928;18.522;2022-07-01T06:52:29;13.70;;;6.57;;
22320;SDS011;11328;53.928;18.522;2022-07-01T06:54:56;13.80;;;6.85;;
22320;SDS011;11328;53.928;18.522;2022-07-01T06:57:23;16.33;;;7.43;;
22320;SDS011;11328;53.928;18.522;2022-07-01T06:59:51;11.68;;;7.10;;
22320;SDS011;11328;53.928;18.522;2022-07-01T07:02:18;14.93;;;8.20;;
22320;SDS011;11328;53.928;18.522;2022-07-01T07:04:45;13.98;;;8.55;;
22320;SDS011;11328;53.928;18.522;2022-07-01T07:07:25;19.65;;;8.15;;
22320;SDS011;11328;53.928;18.522;2022-07-01T07:09:52;11.93;;;8.32;;
22320;SDS011;11328;53.928;18.522;2022-07-01T07:12:19;15.70;;;9.00;;
22320;SDS011;11328;53.928;18.522;2022-07-01T07:14:46;18.65;;;9.20;;
22320;SDS011;11328;53.928;18.522;2022-07-01T07:17:13;18.00;;;9.13;;
22320;SDS011;11328;53.928;18.522;2022-07-01T07:19:40;16.77;;;8.40;;
22320;SDS011;11328;53.928;18.522;2022-07-01T07:33:35;15.32;;;9.65;;
22320;SDS011;11328;53.928;18.522;2022-07-01T07:36:02;16.10;;;9.48;;
22320;SDS011;11328;53.928;18.522;2022-07-01T07:38:29;15.90;;;9.77;;
22320;SDS011;11328;53.928;18.522;2022-07-01T07:40:56;19.77;;;10.25;;
22320;SDS011;11328;53.928;18.522;2022-07-01T07:43:30;20.23;;;9.60;;
22320;SDS011;11328;53.928;18.522;2022-07-01T07:45:57;17.20;;;10.25;;
22320;SDS011;11328;53.928;18.522;2022-07-01T07:48:25;22.08;;;10.18;;
22320;SDS011;11328;53.928;18.522;2022-07-01T07:50:52;15.02;;;8.90;;
22320;SDS011;11328;53.928;18.522;2022-07-01T07:53:19;18.00;;;9.32;;
22320;SDS011;11328;53.928;18.522;2022-07-01T07:55:46;23.30;;;9.68;;
22320;SDS011;11328;53.928;18.522;2022-07-01T07:58:12;21.55;;;9.60;;
22320;SDS011;11328;53.928;18.522;2022-07-01T08:00:39;16.40;;;9.02;;
22320;SDS011;11328;53.928;18.522;2022-07-01T08:03:07;17.13;;;8.65;;
22320;SDS011;11328;53.928;18.522;2022-07-01T08:05:34;16.20;;;9.00;;
22320;SDS011;11328;53.928;18.522;2022-07-01T08:08:01;19.95;;;8.75;;
22320;SDS011;11328;53.928;18.522;2022-07-01T08:10:29;19.70;;;8.80;;
22320;SDS011;11328;53.928;18.522;2022-07-01T08:12:56;17.38;;;9.50;;
22320;SDS011;11328;53.928;18.522;2022-07-01T08:15:24;17.58;;;10.05;;
22320;SDS011;11328;53.928;18.522;2022-07-01T08:17:51;20.20;;;9.70;;
22320;SDS011;11328;53.928;18.522;2022-07-01T08:20:18;16.13;;;9.20;;
22320;SDS011;11328;53.928;18.522;2022-07-01T08:22:48;14.65;;;9.30;;
22320;SDS011;11328;53.928;18.522;2022-07-01T08:25:16;17.33;;;10.15;;
22320;SDS011;11328;53.928;18.522;2022-07-01T08:27:43;13.55;;;9.35;;
22320;SDS011;11328;53.928;18.522;2022-07-01T08:30:10;17.67;;;9.57;;
22320;SDS011;11328;53.928;18.522;2022-07-01T08:32:37;15.43;;;9.60;;
22320;SDS011;11328;53.928;18.522;2022-07-01T08:35:05;16.52;;;9.68;;
22320;SDS011;11328;53.928;18.522;2022-07-01T08:37:33;17.27;;;9.98;;
22320;SDS011;11328;53.928;18.522;2022-07-01T08:40:00;14.60;;;9.35;;
22320;SDS011;11328;53.928;18.522;2022-07-01T08:42:27;16.13;;;9.63;;
22320;SDS011;11328;53.928;18.522;2022-07-01T08:44:54;14.63;;;9.68;;
22320;SDS011;11328;53.928;18.522;2022-07-01T08:47:21;16.98;;;9.77;;
22320;SDS011;11328;53.928;18.522;2022-07-01T08:49:49;16.15;;;9.35;;
22320;SDS011;11328;53.928;18.522;2022-07-01T08:52:16;18.42;;;9.98;;
22320;SDS011;11328;53.928;18.522;2022-07-01T08:54:43;20.40;;;10.75;;
22320;SDS011;11328;53.928;18.522;2022-07-01T08:57:10;15.40;;;10.35;;
22320;SDS011;11328;53.928;18.522;2022-07-01T08:59:37;19.45;;;10.50;;
22320;SDS011;11328;53.928;18.522;2022-07-01T09:02:04;23.58;;;10.82;;
22320;SDS011;11328;53.928;18.522;2022-07-01T09:04:32;17.50;;;10.52;;
22320;SDS011;11328;53.928;18.522;2022-07-01T09:07:02;17.58;;;11.32;;
22320;SDS011;11328;53.928;18.522;2022-07-01T09:09:34;18.02;;;11.15;;
22320;SDS011;11328;53.928;18.522;2022-07-01T09:12:04;20.17;;;11.50;;
22320;SDS011;11328;53.928;18.522;2022-07-01T09:14:32;18.83;;;11.32;;
22320;SDS011;11328;53.928;18.522;2022-07-01T09:17:05;17.77;;;11.40;;
22320;SDS011;11328;53.928;18.522;2022-07-01T09:19:34;17.65;;;11.77;;
22320;SDS011;11328;53.928;18.522;2022-07-01T09:22:11;17.85;;;12.02;;
22320;SDS011;11328;53.928;18.522;2022-07-01T09:24:39;23.88;;;12.05;;
22320;SDS011;11328;53.928;18.522;2022-07-01T09:27:10;20.08;;;11.75;;
22320;SDS011;11328;53.928;18.522;2022-07-01T09:29:42;20.00;;;12.20;;
22320;SDS011;11328;53.928;18.522;2022-07-01T09:32:16;19.60;;;12.13;;
22320;SDS011;11328;53.928;18.522;2022-07-01T09:34:50;19.75;;;12.77;;
22320;SDS011;11328;53.928;18.522;2022-07-01T09:37:23;21.92;;;12.55;;
22320;SDS011;11328;53.928;18.522;2022-07-01T09:39:52;22.25;;;12.45;;
22320;SDS011;11328;53.928;18.522;2022-07-01T09:42:25;16.80;;;11.85;;
22320;SDS011;11328;53.928;18.522;2022-07-01T09:45:00;22.42;;;12.70;;
22320;SDS011;11328;53.928;18.522;2022-07-01T09:47:34;20.67;;;12.05;;
22320;SDS011;11328;53.928;18.522;2022-07-01T09:50:06;20.95;;;11.63;;
22320;SDS011;11328;53.928;18.522;2022-07-01T09:52:35;17.83;;;11.70;;
22320;SDS011;11328;53.928;18.522;2022-07-01T09:55:05;18.33;;;12.18;;
22320;SDS011;11328;53.928;18.522;2022-07-01T09:57:34;17.55;;;11.45;;
22320;SDS011;11328;53.928;18.522;2022-07-01T10:00:02;17.00;;;12.25;;
22320;SDS011;11328;53.928;18.522;2022-07-01T10:05:02;16.35;;;12.20;;
22320;SDS011;11328;53.928;18.522;2022-07-01T10:10:57;20.30;;;12.50;;
22320;SDS011;11328;53.928;18.522;2022-07-01T10:13:42;22.25;;;12.50;;
22320;SDS011;11328;53.928;18.522;2022-07-01T10:16:19;22.83;;;12.05;;
22320;SDS011;11328;53.928;18.522;2022-07-01T10:18:46;14.60;;;12.15;;
22320;SDS011;11328;53.928;18.522;2022-07-01T10:21:26;25.80;;;11.95;;
22320;SDS011;11328;53.928;18.522;2022-07-01T10:24:13;19.25;;;12.55;;
22320;SDS011;11328;53.928;18.522;2022-07-01T10:26:42;17.25;;;12.25;;
22320;SDS011;11328;53.928;18.522;2022-07-01T10:32:08;19.20;;;13.23;;
22320;SDS011;11328;53.928;18.522;2022-07-01T10:35:16;18.85;;;12.90;;
22320;SDS011;11328;53.928;18.522;2022-07-01T10:37:59;23.77;;;14.00;;
22320;SDS011;11328;53.928;18.522;2022-07-01T10:40:43;22.05;;;12.98;;
22320;SDS011;11328;53.928;18.522;2022-07-01T10:43:14;20.67;;;13.70;;
22320;SDS011;11328;53.928;18.522;2022-07-01T10:45:57;22.77;;;12.88;;
22320;SDS011;11328;53.928;18.522;2022-07-01T10:48:24;17.50;;;12.15;;
22320;SDS011;11328;53.928;18.522;2022-07-01T10:50:52;17.33;;;12.77;;
22320;SDS011;11328;53.928;18.522;2022-07-01T10:53:20;23.50;;;12.45;;
22320;SDS011;11328;53.928;18.522;2022-07-01T10:55:50;18.13;;;11.85;;
22320;SDS011;11328;53.928;18.522;2022-07-01T10:58:36;17.23;;;11.57;;
22320;SDS011;11328;53.928;18.522;2022-07-01T11:01:04;14.93;;;10.40;;
22320;SDS011;11328;53.928;18.522;2022-07-01T11:03:35;15.55;;;11.13;;
22320;SDS011;11328;53.928;18.522;2022-07-01T11:06:06;14.85;;;10.82;;
22320;SDS011;11328;53.928;18.522;2022-07-01T11:08:34;16.80;;;10.50;;
22320;SDS011;11328;53.928;18.522;2022-07-01T11:11:01;18.27;;;11.45;;
22320;SDS011;11328;53.928;18.522;2022-07-01T11:13:31;19.55;;;11.80;;
22320;SDS011;11328;53.928;18.522;2022-07-01T11:16:02;16.33;;;10.95;;
22320;SDS011;11328;53.928;18.522;2022-07-01T11:18:30;19.23;;;11.38;;
22320;SDS011;11328;53.928;18.522;2022-07-01T11:21:04;16.13;;;11.18;;
22320;SDS011;11328;53.928;18.522;2022-07-01T11:23:34;15.50;;;10.45;;
22320;SDS011;11328;53.928;18.522;2022-07-01T11:26:06;17.75;;;10.52;;
22320;SDS011;11328;53.928;18.522;2022-07-01T11:28:46;16.50;;;10.27;;
22320;SDS011;11328;53.928;18.522;2022-07-01T11:31:13;16.90;;;10.88;;
22320;SDS011;11328;53.928;18.522;2022-07-01T11:33:41;14.82;;;9.98;;
22320;SDS011;11328;53.928;18.522;2022-07-01T11:36:15;16.25;;;10.18;;
22320;SDS011;11328;53.928;18.522;2022-07-01T11:39:01;18.63;;;12.60;;
22320;SDS011;11328;53.928;18.522;2022-07-01T11:41:46;15.05;;;12.80;;
22320;SDS011;11328;53.928;18.522;2022-07-01T11:44:30;17.95;;;13.18;;
22320;SDS011;11328;53.928;18.522;2022-07-01T11:47:01;17.40;;;13.00;;
22320;SDS011;11328;53.928;18.522;2022-07-01T11:49:30;17.17;;;12.48;;
22320;SDS011;11328;53.928;18.522;2022-07-01T11:51:59;17.85;;;12.23;;
22320;SDS011;11328;53.928;18.522;2022-07-01T11:54:29;18.40;;;12.98;;
22320;SDS011;11328;53.928;18.522;2022-07-01T11:57:12;14.95;;;12.93;;
22320;SDS011;11328;53.928;18.522;2022-07-01T11:59:44;20.00;;;13.00;;
22320;SDS011;11328;53.928;18.522;2022-07-01T12:02:14;21.10;;;12.98;;
22320;SDS011;11328;53.928;18.522;2022-07-01T12:04:43;19.30;;;13.15;;
22320;SDS011;11328;53.928;18.522;2022-07-01T12:07:12;18.70;;;12.70;;
22320;SDS011;11328;53.928;18.522;2022-07-01T12:09:41;15.25;;;10.82;;
22320;SDS011;11328;53.928;18.522;2022-07-01T12:12:19;15.82;;;9.98;;
22320;SDS011;11328;53.928;18.522;2022-07-01T12:14:51;16.58;;;10.00;;
22320;SDS011;11328;53.928;18.522;2022-07-01T12:17:23;18.95;;;10.07;;
22320;SDS011;11328;53.928;18.522;2022-07-01T12:19:53;15.88;;;8.95;;
22320;SDS011;11328;53.928;18.522;2022-07-01T12:22:22;15.02;;;9.35;;
22320;SDS011;11328;53.928;18.522;2022-07-01T12:25:08;12.43;;;9.40;;
22320;SDS011;11328;53.928;18.522;2022-07-01T12:27:41;16.15;;;8.35;;
22320;SDS011;11328;53.928;18.522;2022-07-01T12:30:10;15.48;;;8.73;;
22320;SDS011;11328;53.928;18.522;2022-07-01T12:32:48;13.43;;;8.57;;
22320;SDS011;11328;53.928;18.522;2022-07-01T12:35:22;16.17;;;9.60;;
22320;SDS011;11328;53.928;18.522;2022-07-01T12:38:04;16.63;;;9.23;;
22320;SDS011;11328;53.928;18.522;2022-07-01T12:40:34;24.60;;;9.63;;
22320;SDS011;11328;53.928;18.522;2022-07-01T12:43:01;15.73;;;9.27;;
22320;SDS011;11328;53.928;18.522;2022-07-01T12:45:33;14.07;;;10.33;;
22320;SDS011;11328;53.928;18.522;2022-07-01T12:48:06;15.05;;;9.23;;
22320;SDS011;11328;53.928;18.522;2022-07-01T12:50:34;15.20;;;10.00;;
22320;SDS011;11328;53.928;18.522;2022-07-01T12:55:48;11.05;;;8.85;;
22320;SDS011;11328;53.928;18.522;2022-07-01T12:58:23;15.38;;;9.25;;
22320;SDS011;11328;53.928;18.522;2022-07-01T13:00:57;14.18;;;9.02;;
22320;SDS011;11328;53.928;18.522;2022-07-01T13:03:25;12.50;;;9.65;;
22320;SDS011;11328;53.928;18.522;2022-07-01T13:05:55;13.88;;;9.20;;
22320;SDS011;11328;53.928;18.522;2022-07-01T13:08:22;16.48;;;10.63;;
22320;SDS011;11328;53.928;18.522;2022-07-01T13:10:50;15.18;;;9.80;;
22320;SDS011;11328;53.928;18.522;2022-07-01T13:13:17;15.43;;;9.80;;
22320;SDS011;11328;53.928;18.522;2022-07-01T13:15:44;16.48;;;10.05;;
22320;SDS011;11328;53.928;18.522;2022-07-01T13:18:12;12.38;;;9.70;;
22320;SDS011;11328;53.928;18.522;2022-07-01T13:20:44;13.55;;;9.75;;
22320;SDS011;11328;53.928;18.522;2022-07-01T13:23:12;17.13;;;10.65;;
22320;SDS011;11328;53.928;18.522;2022-07-01T13:25:40;14.15;;;10.02;;
22320;SDS011;11328;53.928;18.522;2022-07-01T13:28:07;11.18;;;9.77;;
22320;SDS011;11328;53.928;18.522;2022-07-01T13:30:34;16.30;;;9.75;;
22320;SDS011;11328;53.928;18.522;2022-07-01T13:33:02;14.88;;;9.85;;
22320;SDS011;11328;53.928;18.522;2022-07-01T13:35:30;14.48;;;10.07;;
22320;SDS011;11328;53.928;18.522;2022-07-01T13:37:57;14.18;;;9.35;;
22320;SDS011;11328;53.928;18.522;2022-07-01T13:40:24;16.02;;;9.77;;
22320;SDS011;11328;53.928;18.522;2022-07-01T13:42:51;17.15;;;9.40;;
22320;SDS011;11328;53.928;18.522;2022-07-01T13:45:18;13.48;;;9.38;;
22320;SDS011;11328;53.928;18.522;2022-07-01T13:47:45;15.10;;;9.32;;
22320;SDS011;11328;53.928;18.522;2022-07-01T13:50:12;18.25;;;9.52;;
22320;SDS011;11328;53.928;18.522;2022-07-01T13:52:39;16.25;;;9.35;;
22320;SDS011;11328;53.928;18.522;2022-07-01T13:55:12;12.90;;;9.30;;
22320;SDS011;11328;53.928;18.522;2022-07-01T13:57:39;13.38;;;8.95;;
22320;SDS011;11328;53.928;18.522;2022-07-01T14:00:06;14.50;;;9.57;;
22320;SDS011;11328;53.928;18.522;2022-07-01T14:02:34;14.40;;;9.32;;
22320;SDS011;11328;53.928;18.522;2022-07-01T14:05:02;13.45;;;9.43;;
22320;SDS011;11328;53.928;18.522;2022-07-01T14:07:30;13.30;;;8.85;;
22320;SDS011;11328;53.928;18.522;2022-07-01T14:09:57;12.43;;;8.80;;
22320;SDS011;11328;53.928;18.522;2022-07-01T14:12:25;17.02;;;9.27;;
22320;SDS011;11328;53.928;18.522;2022-07-01T14:14:54;12.35;;;8.52;;
22320;SDS011;11328;53.928;18.522;2022-07-01T14:17:23;12.75;;;8.55;;
22320;SDS011;11328;53.928;18.522;2022-07-01T14:19:54;16.40;;;9.15;;
22320;SDS011;11328;53.928;18.522;2022-07-01T14:22:24;12.85;;;9.20;;
22320;SDS011;11328;53.928;18.522;2022-07-01T14:24:52;15.60;;;9.43;;
22320;SDS011;11328;53.928;18.522;2022-07-01T14:27:19;12.45;;;8.70;;
22320;SDS011;11328;53.928;18.522;2022-07-01T14:29:47;18.00;;;9.23;;
22320;SDS011;11328;53.928;18.522;2022-07-01T14:32:21;12.73;;;8.73;;
22320;SDS011;11328;53.928;18.522;2022-07-01T14:34:53;14.15;;;8.45;;
22320;SDS011;11328;53.928;18.522;2022-07-01T14:37:20;13.00;;;8.13;;
22320;SDS011;11328;53.928;18.522;2022-07-01T14:39:48;13.07;;;8.35;;
22320;SDS011;11328;53.928;18.522;2022-07-01T14:42:19;14.07;;;8.85;;
22320;SDS011;11328;53.928;18.522;2022-07-01T14:44:46;16.52;;;8.13;;
22320;SDS011;11328;53.928;18.522;2022-07-01T14:47:15;13.90;;;8.23;;
22320;SDS011;11328;53.928;18.522;2022-07-01T14:49:43;11.68;;;8.20;;